« Back
NWS Peachtree City, Ga » Text Product » MCN Terminal Aerodrome Forecast


Printer-friendly Version
Current Version              Previous Versions:   1  2  3  4  5  6  7  8  9  

Terminal Aerodrome Forecast

944
FTUS42 KFFC 220500
TAFMCN
TAF
KMCN 220523Z 2206/2306 28003KT P6SM SCT040
     FM221500 33005KT P6SM VCSH BKN040 PROB30 2215/2220 -TSRA
      BKN040CB
     FM222200 34006KT P6SM FEW040 SCT250
     FM230000 03005KT P6SM SCT250=

USA.gov is the U.S. government's official web portal to all federal, state and local government web resources and services.